ADDS METAR Data INFO
IDs: Format: Raw Decoded Include TAF

Data at: 2052 UTC 24 Jun 2017

KMDD 242035Z AUTO 11011G16KT 10SM CLR 30/16 A3017 RMK AO2 T02980157
KMDD 242015Z AUTO 11014G18KT 10SM CLR 30/15 A3018 RMK AO2 T02970153
KMDD 241955Z AUTO 10012G18KT 10SM CLR 30/16 A3019 RMK AO2 T02950157
KMDD 241935Z AUTO 11013G20KT 10SM CLR 29/16 A3019 RMK AO2 T02900161
KMDD 241915Z AUTO 09014G20KT 10SM SCT039 SCT045 29/16 A3020 RMK AO2 T02900159
KMDD 241855Z AUTO 10012G18KT 10SM SCT037 28/17 A3021 RMK AO2 T02840166
KMDD 241835Z AUTO 08014G17KT 10SM SCT033 SCT070 27/17 A3021 RMK AO2 T02740172
KMDD 241815Z AUTO 07011G16KT 10SM SCT029 BKN070 27/17 A3022 RMK AO2 T02700173
KMDD 241755Z AUTO 10012G18KT 10SM BKN070 BKN080 26/17 A3023 RMK AO2 T02600174 10260 20198
KMDD 241735Z AUTO 08011G18KT 10SM SCT060 SCT080 25/17 A3024 RMK AO2 T02490172
KMDD 241715Z AUTO 10014G19KT 10SM SCT020 25/17 A3024 RMK AO2 T02460170
KMDD 241655Z AUTO 09012KT 10SM BKN020 BKN026 BKN055 24/17 A3024 RMK AO2 T02380170
KMDD 241635Z AUTO 08010G19KT 10SM BKN018 OVC024 22/17 A3025 RMK AO2 T02240169
KMDD 241615Z AUTO 08015G21KT 10SM BKN016 OVC022 22/17 A3026 RMK AO2 T02190166
KMDD 241555Z AUTO 06017G20KT 10SM OVC016 22/17 A3026 RMK AO2 T02170167
KMDD 241535Z AUTO 07013G18KT 10SM OVC016 22/17 A3025 RMK AO2 T02160165
KMDD 241515Z AUTO 07012KT 10SM OVC016 21/16 A3025 RMK AO2 T02100163
KMDD 241455Z AUTO 07014G19KT 10SM OVC016 21/16 A3025 RMK AO2 T02050160
KMDD 241435Z AUTO 08016G23KT 10SM OVC016 21/16 A3024 RMK AO2 LTG DSNT E T02050158
KMDD 241415Z AUTO 07014G22KT 10SM BKN018 21/15 A3022 RMK AO2 T02060154
KMDD 241355Z AUTO 07017G22KT 10SM SCT018 21/15 A3021 RMK AO2 T02070150
KMDD 241335Z AUTO 06015G22KT 10SM CLR 20/14 A3019 RMK AO2 T02010142
KMDD 241315Z AUTO 05016G19KT 10SM CLR 20/14 A3019 RMK AO2 T02000140
KMDD 241255Z AUTO 06017G20KT 10SM CLR 20/14 A3018 RMK AO2 T01990136
KMDD 241235Z AUTO 05015G19KT 10SM CLR 20/13 A3018 RMK AO2 T02020134
KMDD 241215Z AUTO 06012G18KT 10SM CLR 21/13 A3016 RMK AO2 T02060133
KMDD 241155Z AUTO 06013KT 10SM CLR 21/13 A3014 RMK AO2 7//// T02070133 10255 20207
KMDD 241135Z AUTO 05012G18KT 10SM CLR 21/14 A3012 RMK AO2 T02080136
KMDD 241115Z AUTO 05012G16KT 10SM CLR 21/14 A3010 RMK AO2 T02100136
KMDD 241055Z AUTO 04012G19KT 10SM CLR 21/14 A3008 RMK AO2 T02100141
KMDD 241035Z AUTO 04011G18KT 10SM CLR 21/16 A3007 RMK AO2 T02120158
KMDD 241015Z AUTO 02010G16KT 10SM CLR 22/16 A3005 RMK AO2 T02170162
KMDD 240955Z AUTO 01011G16KT 10SM CLR 22/16 A3003 RMK AO2 T02180160
KMDD 240935Z AUTO 36011KT 10SM CLR 21/16 A3002 RMK AO2 T02140160
KMDD 240915Z AUTO 34006KT 10SM CLR 22/16 A3001 RMK AO2 T02150157
KMDD 240855Z AUTO 32005KT 10SM CLR 22/16 A3001 RMK AO2 T02180155
KMDD 240835Z AUTO 27003KT 10SM CLR 24/15 A3002 RMK AO2 T02360149
KMDD 240815Z AUTO 00000KT 10SM CLR 24/14 A3003 RMK AO2 T02370143
KMDD 240755Z AUTO 17003KT 10SM CLR 24/14 A3003 RMK AO2 T02380143
KMDD 240735Z AUTO 21004KT 10SM CLR 24/14 A3005 RMK AO2 T02410144
KMDD 240715Z AUTO 15006KT 10SM CLR 25/14 A3006 RMK AO2 T02450143
KMDD 240655Z AUTO 14006KT 10SM CLR 24/15 A3007 RMK AO2 T02410148
KMDD 240635Z AUTO 13006KT 10SM CLR 25/15 A3008 RMK AO2 T02460146
KMDD 240615Z AUTO 14007KT 10SM CLR 25/15 A3008 RMK AO2 T02510145
KMDD 240555Z AUTO 14011G15KT 10SM CLR 26/15 A3008 RMK AO2 T02550146 10276 20229
KMDD 240535Z AUTO 14007KT 10SM CLR 26/16 A3008 RMK AO2 T02560157
KMDD 240515Z AUTO 14004KT 10SM CLR 24/18 A3007 RMK AO2 T02380177
KMDD 240455Z AUTO 29003KT 10SM CLR 24/18 A3005 RMK AO2 LTG DSNT SE T02350177
KMDD 240435Z AUTO 32003KT 10SM CLR 24/17 A3003 RMK AO2 T02380172
KMDD 240415Z AUTO 00000KT 10SM CLR 26/15 A3001 RMK AO2 T02560154
KMDD 240355Z AUTO 25003KT 10SM CLR 26/15 A2998 RMK AO2 T02570154
KMDD 240335Z AUTO 16007KT 10SM CLR 27/13 A2995 RMK AO2 T02730132
KMDD 240315Z AUTO 15005KT 10SM CLR 26/15 A2994 RMK AO2 LTG DSNT SE AND SW T02640145
KMDD 240255Z AUTO 12006KT 10SM CLR 26/14 A2993 RMK AO2 LTG DSNT E AND S T02610144
KMDD 240235Z AUTO 10010KT 10SM CLR 26/15 A2992 RMK AO2 LTG DSNT SE AND S T02590148
KMDD 240215Z AUTO 11011G18KT 10SM CLR 27/13 A2989 RMK AO2 LTG DSNT SE T02710131
KMDD 240155Z AUTO 08015KT 10SM VCTS CLR 27/13 A2990 RMK AO2 LTG DSNT E THRU SW P0001 T02720130
KMDD 240135Z AUTO 05021G32KT 10SM -TSRA SCT040 SCT060 SCT085 26/14 A2996 RMK AO2 LTG DSNT ALQS P0001 T02590135
KMDD 240115Z AUTO 02011G26KT 7SM TSRA SCT040 BKN065 OVC110 25/14 A3000 RMK AO2 LTG DSNT ALQS P0001 T02490138
KMDD 240055Z AUTO 36012G35KT 5SM TSRA SCT038 BKN050 OVC110 23/16 A3001 RMK AO2 LTG DSNT ALQS P0002 T02320159
KMDD 240035Z AUTO 35029G40KT 10SM -TSRA OVC110 26/15 A2997 RMK AO2 LTG DSNT ALQS T02570150
KMDD 240015Z AUTO 33027G34KT 10SM -VCTSRA BKN120 25/16 A2994 RMK AO2 LTG DSNT NE E AND W T02490160
KMDD 232355Z AUTO 32025G35KT 10SM -VCTSRA BKN120 25/17 A2991 RMK AO2 LTG DSNT ALQS P0007 6//// T02530173
KMDD 232335Z AUTO 30012G17KT 10SM -RA SCT050 SCT070 BKN100 25/19 A2988 RMK AO2 LTG DSNT ALQS P0007 T02530189
KMDD 232315Z AUTO 24010KT 10SM -TSRA SCT014 BKN070 OVC110 23/19 A2987 RMK AO2 LTG DSNT ALQS P0006 T02320188
KMDD 232255Z AUTO 20010G28KT 2SM +TSRA BKN004 BKN013 OVC024 21/21 A2991 RMK AO2 LTG DSNT ALQS P0068 T02070206
KMDD 232235Z AUTO 06039G64KT 2 1/2SM +TSRA 27/17 A2985 RMK AO2 LTG DSNT ALQS P0006 T02700170
KMDD 232215Z AUTO 05017G21KT 10SM TS SCT120 39/10 A2982 RMK AO2 LTG DSNT ALQS T03910100
KMDD 232155Z AUTO 17016G20KT 10SM CLR 42/08 A2980 RMK AO2 LTG DSNT NW THRU NE T04180081
KMDD 232135Z AUTO 10005KT 10SM CLR 41/07 A2981 RMK AO2 LTG DSNT NE T04120073
KMDD 232115Z AUTO 14015G21KT 10SM SCT120 42/08 A2982 RMK AO2 LTG DSNT NW T04170075
KMDD 232055Z AUTO 12011G15KT 070V130 10SM SCT120 42/08 A2983 RMK AO2 T04190076
KMDD 232035Z AUTO 12010G16KT 10SM SCT120 41/08 A2984 RMK AO2 T04130076
KMDD 232015Z AUTO 15011KT 10SM CLR 42/08 A2985 RMK AO2 T04160082
KMDD 232000Z AUTO 19007KT 10SM CLR 41/08 A2985 RMK AO2 T04080081
KMDD 231935Z AUTO 00000KT 10SM CLR 41/08 A2985 RMK AO2 T04100077
KMDD 231915Z AUTO 16013KT 10SM CLR 40/08 A2986 RMK AO2 T04040081
KMDD 231855Z AUTO 19004G10KT 10SM CLR 41/08 A2985 RMK AO2 T04080080
KMDD 231835Z AUTO 15005G18KT 10SM CLR 41/08 A2986 RMK AO2 T04060076
KMDD 231815Z AUTO 13008G16KT 10SM CLR 40/08 A2986 RMK AO2 T04020079
KMDD 231755Z AUTO 14008G17KT 10SM CLR 40/09 A2987 RMK AO2 T03960094 10396 20276
KMDD 231735Z AUTO 18009G14KT 10SM CLR 39/12 A2987 RMK AO2 T03910115
KMDD 231715Z AUTO 16008G15KT 10SM CLR 39/12 A2987 RMK AO2 T03850116
KMDD 231655Z AUTO 16008G15KT 10SM CLR 38/12 A2987 RMK AO2 T03780121
KMDD 231635Z AUTO 18010KT 10SM CLR 37/13 A2986 RMK AO2 T03670125
KMDD 231615Z AUTO 21011KT 10SM CLR 36/13 A2986 RMK AO2 T03600129
KMDD 231555Z AUTO 19008KT 10SM CLR 35/13 A2987 RMK AO2 T03490130
KMDD 231535Z AUTO 17007KT 10SM CLR 34/13 A2987 RMK AO2 T03370127
KMDD 231515Z AUTO 18014G17KT 10SM CLR 33/13 A2985 RMK AO2 T03300128
KMDD 231455Z AUTO 19011KT 10SM CLR 32/13 A2985 RMK AO2 T03180129
KMDD 231435Z AUTO 18007KT 10SM CLR 30/13 A2985 RMK AO2 T02990130
KMDD 231415Z AUTO 19006KT 10SM CLR 30/13 A2986 RMK AO2 T02960126
KMDD 231355Z AUTO 13010KT 10SM CLR 30/12 A2984 RMK AO2 T02970122
KMDD 231335Z AUTO 09006KT 10SM CLR 30/13 A2986 RMK AO2 T03000127
KMDD 231315Z AUTO 05009KT 7SM CLR 29/13 A2987 RMK AO2 T02870133
KMDD 231255Z AUTO 06006KT 10SM CLR 28/14 A2986 RMK AO2 T02770136
KMDD 231235Z AUTO 08005KT 10SM CLR 28/13 A2985 RMK AO2 T02760134
KMDD 231215Z AUTO 00000KT 10SM CLR 29/12 A2984 RMK AO2 T02860124
KMDD 231155Z AUTO 00000KT 10SM CLR 29/12 A2984 RMK AO2 T02890121 10321 20285
KMDD 231135Z AUTO 15003KT 10SM CLR 29/13 A2982 RMK AO2 T02850125
KMDD 231115Z AUTO 18004KT 10SM CLR 29/13 A2981 RMK AO2 T02870125
KMDD 231055Z AUTO 15006KT 10SM CLR 29/13 A2980 RMK AO2 T02900125
KMDD 231035Z AUTO 18005KT 10SM CLR 29/13 A2979 RMK AO2 T02910125
KMDD 231015Z AUTO 18006KT 10SM CLR 29/12 A2978 RMK AO2 T02940124
KMDD 230955Z AUTO 18006KT 10SM CLR 30/12 A2978 RMK AO2 T02970123
KMDD 230935Z AUTO 19007KT 10SM CLR 30/12 A2977 RMK AO2 T03000124
KMDD 230915Z AUTO 17007KT 10SM CLR 30/13 A2976 RMK AO2 T03010126
KMDD 230855Z AUTO 16007KT 10SM CLR 31/13 A2975 RMK AO2 T03060127


Page loaded:  20:52 UTC  |   01:52 PM Pacific  |   02:52 PM Mountain  |   03:52 PM Central  |   04:52 PM Eastern

 

ADVISORIES

FORECASTS

FORECASTS

OBSERVATIONS

USER TOOLS

ABOUT US